createdAt,value
2023-12-30T00:01:57.043Z,7.64
2023-12-30T00:04:44.206Z,7.68
2023-12-30T00:07:31.547Z,7.70
2023-12-30T00:10:18.467Z,7.70
2023-12-30T00:13:05.153Z,7.73
2023-12-30T00:15:52.100Z,7.73
2023-12-30T00:18:38.627Z,7.68
2023-12-30T00:21:25.011Z,7.61
2023-12-30T00:24:11.394Z,7.54
2023-12-30T00:26:58.092Z,7.44
2023-12-30T00:29:44.704Z,7.33
2023-12-30T00:32:31.429Z,7.26
2023-12-30T00:35:18.094Z,7.21
2023-12-30T00:38:04.351Z,7.13
2023-12-30T00:40:50.948Z,7.09
2023-12-30T00:43:38.628Z,7.08
2023-12-30T00:46:25.316Z,7.04
2023-12-30T00:49:12.868Z,7.01
2023-12-30T00:52:00.246Z,6.97
2023-12-30T00:54:50.867Z,6.95
2023-12-30T00:57:38.242Z,6.95
2023-12-30T01:00:25.152Z,6.92
2023-12-30T01:03:11.538Z,6.97
2023-12-30T01:05:58.414Z,6.97
2023-12-30T01:08:44.861Z,6.97
2023-12-30T01:11:31.705Z,6.98
2023-12-30T01:14:18.163Z,7.01
2023-12-30T01:17:05.043Z,7.05
2023-12-30T01:19:52.167Z,7.08
2023-12-30T01:22:38.867Z,7.14
2023-12-30T01:25:25.429Z,7.13
2023-12-30T01:28:11.944Z,7.17
2023-12-30T01:30:58.471Z,7.19
2023-12-30T01:33:46.726Z,7.18
2023-12-30T01:36:33.003Z,7.17
2023-12-30T01:39:19.593Z,7.10
2023-12-30T01:42:06.351Z,7.12
2023-12-30T01:44:53.233Z,7.04
2023-12-30T01:47:40.231Z,7.07
2023-12-30T01:50:27.677Z,7.07
2023-12-30T01:53:16.768Z,7.06
2023-12-30T01:56:04.493Z,7.04
2023-12-30T01:58:52.834Z,7.02
2023-12-30T02:01:39.407Z,7.02
2023-12-30T02:04:26.742Z,7.00
2023-12-30T02:07:13.334Z,6.98
2023-12-30T02:10:00.121Z,6.99
2023-12-30T02:12:46.896Z,6.98
2023-12-30T02:15:33.474Z,7.00
2023-12-30T02:18:19.941Z,7.00
2023-12-30T02:21:08.031Z,7.01
2023-12-30T02:23:55.670Z,7.03
2023-12-30T02:26:42.278Z,7.02
2023-12-30T02:29:29.271Z,6.98
2023-12-30T02:32:15.891Z,6.89
2023-12-30T02:35:02.421Z,6.77
2023-12-30T02:37:49.182Z,6.52
2023-12-30T02:40:35.861Z,6.28
2023-12-30T02:43:25.686Z,6.08
2023-12-30T02:46:12.664Z,5.95
2023-12-30T02:49:03.776Z,5.86
2023-12-30T02:51:50.415Z,5.76
2023-12-30T02:54:37.597Z,5.72
2023-12-30T02:57:27.107Z,5.66
2023-12-30T03:00:14.504Z,5.62
2023-12-30T03:03:01.458Z,5.60
2023-12-30T03:05:48.461Z,5.60
2023-12-30T03:08:34.925Z,5.60
2023-12-30T03:11:22.759Z,5.60
2023-12-30T03:14:09.571Z,5.61
2023-12-30T03:16:55.755Z,5.59
2023-12-30T03:19:42.508Z,5.57
2023-12-30T03:22:29.356Z,5.56
2023-12-30T03:25:16.131Z,5.56
2023-12-30T03:28:02.856Z,5.56
2023-12-30T03:30:50.254Z,5.57
2023-12-30T03:33:37.203Z,5.57
2023-12-30T03:36:24.050Z,5.57
2023-12-30T03:39:11.483Z,5.53
2023-12-30T03:41:58.051Z,5.46
2023-12-30T03:44:44.366Z,5.48
2023-12-30T03:47:32.004Z,5.48
2023-12-30T03:50:19.056Z,5.42
2023-12-30T03:53:06.452Z,5.37
2023-12-30T03:55:53.352Z,5.31
2023-12-30T03:58:39.897Z,5.32
2023-12-30T04:01:27.653Z,5.30
2023-12-30T04:04:14.041Z,5.27
2023-12-30T04:07:00.352Z,5.27
2023-12-30T04:09:47.261Z,5.27
2023-12-30T04:12:36.474Z,5.28
2023-12-30T04:15:23.397Z,5.25
2023-12-30T04:18:09.675Z,5.28
2023-12-30T04:20:56.773Z,5.29
2023-12-30T04:23:43.326Z,5.30
2023-12-30T04:26:30.057Z,5.29
2023-12-30T04:29:17.067Z,5.29
2023-12-30T04:32:04.186Z,5.26
2023-12-30T04:34:50.932Z,5.29
2023-12-30T04:37:37.876Z,5.25
2023-12-30T04:40:24.795Z,5.29
2023-12-30T04:43:11.950Z,5.31
2023-12-30T04:45:58.397Z,5.34
2023-12-30T04:48:45.280Z,5.37
2023-12-30T04:51:32.029Z,5.37
2023-12-30T04:54:18.279Z,5.37
2023-12-30T04:57:04.983Z,5.35
2023-12-30T04:59:51.501Z,5.32
2023-12-30T05:02:38.154Z,5.26
2023-12-30T05:05:25.078Z,5.24
2023-12-30T05:08:11.692Z,5.26
2023-12-30T05:10:59.693Z,5.25
2023-12-30T05:13:47.374Z,5.25
2023-12-30T05:16:34.523Z,5.24
2023-12-30T05:19:21.787Z,5.25
2023-12-30T05:22:08.444Z,5.24
2023-12-30T05:24:55.542Z,5.22
2023-12-30T05:27:42.199Z,5.14
2023-12-30T05:30:30.170Z,5.18
2023-12-30T05:33:17.189Z,5.17
2023-12-30T05:36:04.477Z,5.19
2023-12-30T05:38:51.257Z,5.20
2023-12-30T05:41:40.588Z,5.19
2023-12-30T05:44:27.011Z,5.16
2023-12-30T05:47:13.508Z,5.18
2023-12-30T05:50:00.074Z,5.16
2023-12-30T05:52:46.924Z,5.17
2023-12-30T05:55:33.786Z,5.16
2023-12-30T05:58:20.355Z,5.14
2023-12-30T06:01:07.103Z,5.17
2023-12-30T06:03:53.916Z,5.15
2023-12-30T06:06:41.496Z,5.14
2023-12-30T06:09:28.303Z,5.13
2023-12-30T06:12:14.960Z,5.14
2023-12-30T06:15:01.771Z,5.14
2023-12-30T06:17:48.398Z,5.12
2023-12-30T06:20:34.868Z,5.12
2023-12-30T06:23:21.268Z,5.11
2023-12-30T06:26:08.252Z,5.10
2023-12-30T06:28:54.654Z,5.11
2023-12-30T06:31:43.000Z,5.08
2023-12-30T06:34:29.927Z,5.08
2023-12-30T06:37:18.067Z,5.08
2023-12-30T06:40:05.627Z,5.07
2023-12-30T06:42:51.839Z,5.05
2023-12-30T06:45:38.986Z,5.01
2023-12-30T06:48:25.449Z,5.02
2023-12-30T06:51:12.652Z,5.01
2023-12-30T06:53:58.981Z,5.00
2023-12-30T06:56:45.630Z,4.98
2023-12-30T06:59:32.260Z,4.97
2023-12-30T07:02:19.019Z,4.98
2023-12-30T07:05:06.897Z,4.99
2023-12-30T07:07:53.260Z,5.01
2023-12-30T07:10:40.468Z,5.02
2023-12-30T07:13:27.127Z,5.03
2023-12-30T07:16:16.700Z,5.04
2023-12-30T07:19:03.475Z,5.06
2023-12-30T07:21:50.354Z,5.10
2023-12-30T07:24:38.513Z,5.11
2023-12-30T07:27:24.840Z,5.16
2023-12-30T07:30:12.216Z,5.21
2023-12-30T07:32:58.993Z,5.24
2023-12-30T07:35:45.756Z,5.27
2023-12-30T07:38:32.982Z,5.31
2023-12-30T07:41:19.402Z,5.33
2023-12-30T07:44:06.010Z,5.36
2023-12-30T07:46:52.690Z,5.38
2023-12-30T07:49:39.255Z,5.42
2023-12-30T07:52:26.879Z,5.46
2023-12-30T07:55:13.554Z,5.50
2023-12-30T07:58:00.532Z,5.55
2023-12-30T08:00:48.382Z,5.52
2023-12-30T08:03:35.147Z,5.64
2023-12-30T08:06:22.122Z,5.67
2023-12-30T08:09:09.275Z,5.69
2023-12-30T08:12:02.151Z,5.69
2023-12-30T08:14:50.133Z,5.71
2023-12-30T08:17:36.889Z,5.71
2023-12-30T08:20:23.646Z,5.74
2023-12-30T08:23:10.379Z,5.77
2023-12-30T08:25:57.247Z,5.80
2023-12-30T08:28:43.929Z,5.84
2023-12-30T08:31:30.284Z,5.85
2023-12-30T08:34:17.508Z,5.91
2023-12-30T08:37:09.589Z,6.01
2023-12-30T08:39:56.562Z,6.24
2023-12-30T08:42:45.790Z,6.39
2023-12-30T08:45:33.145Z,6.40
2023-12-30T08:48:20.134Z,6.32
2023-12-30T08:51:06.851Z,6.26
2023-12-30T08:53:54.784Z,6.25
2023-12-30T08:56:41.617Z,6.27
2023-12-30T08:59:28.407Z,6.24
2023-12-30T09:02:15.452Z,6.22
2023-12-30T09:05:04.101Z,6.20
2023-12-30T09:07:51.087Z,6.17
2023-12-30T09:10:39.585Z,6.22
2023-12-30T09:13:25.894Z,6.28
2023-12-30T09:16:13.090Z,6.35
2023-12-30T09:18:59.758Z,6.46
2023-12-30T09:21:46.503Z,6.50
2023-12-30T09:24:33.072Z,6.52
2023-12-30T09:27:19.953Z,6.52
2023-12-30T09:30:07.527Z,6.45
2023-12-30T09:32:54.127Z,6.50
2023-12-30T09:35:41.061Z,6.63
2023-12-30T09:38:27.658Z,6.73
2023-12-30T09:41:14.974Z,6.81
2023-12-30T09:44:04.344Z,6.97
2023-12-30T09:46:52.128Z,7.15
2023-12-30T09:49:38.858Z,7.31
2023-12-30T09:52:26.154Z,7.39
2023-12-30T09:55:13.194Z,7.29
2023-12-30T09:58:01.100Z,7.02
2023-12-30T10:00:48.323Z,6.83
2023-12-30T10:03:37.200Z,6.69
2023-12-30T10:06:25.111Z,6.60
2023-12-30T10:09:13.194Z,6.57
2023-12-30T10:11:59.885Z,6.57
2023-12-30T10:14:46.898Z,6.58
2023-12-30T10:17:33.399Z,6.50
2023-12-30T10:20:24.700Z,6.36
2023-12-30T10:23:11.659Z,6.20
2023-12-30T10:25:58.443Z,6.03
2023-12-30T10:28:45.974Z,5.88
2023-12-30T10:31:32.867Z,5.84
2023-12-30T10:34:22.236Z,5.97
2023-12-30T10:37:09.649Z,6.14
2023-12-30T10:39:57.009Z,6.31
2023-12-30T10:42:43.806Z,6.41
2023-12-30T10:45:31.267Z,6.58
2023-12-30T10:48:19.463Z,6.67
2023-12-30T10:51:07.797Z,6.74
2023-12-30T10:54:05.700Z,6.84
2023-12-30T10:57:07.560Z,6.96
2023-12-30T10:59:58.322Z,6.99
2023-12-30T11:02:46.774Z,6.86
2023-12-30T11:05:57.365Z,6.71
2023-12-30T11:08:45.679Z,6.69
2023-12-30T11:11:32.717Z,6.72
2023-12-30T11:14:20.690Z,6.74
2023-12-30T11:17:07.648Z,6.71
2023-12-30T11:19:56.444Z,6.63
2023-12-30T11:22:43.420Z,6.59
2023-12-30T11:25:36.777Z,6.55
2023-12-30T11:28:23.920Z,6.52
2023-12-30T11:31:10.733Z,6.50
2023-12-30T11:34:00.249Z,6.55
2023-12-30T11:36:48.418Z,6.62
2023-12-30T11:42:33.984Z,6.73
2023-12-30T11:45:28.253Z,6.78
2023-12-30T11:48:16.438Z,6.91
2023-12-30T11:51:02.970Z,7.06
2023-12-30T11:53:49.628Z,7.34
2023-12-30T11:56:36.381Z,7.45
2023-12-30T11:59:22.918Z,7.45
2023-12-30T12:02:12.575Z,7.37
2023-12-30T12:04:59.333Z,7.37
2023-12-30T12:07:46.302Z,7.29
2023-12-30T12:10:34.262Z,7.17
2023-12-30T12:13:22.482Z,7.03
2023-12-30T12:16:09.541Z,6.93
2023-12-30T12:18:56.816Z,6.78
2023-12-30T12:21:43.483Z,6.68
2023-12-30T12:24:33.085Z,6.58
2023-12-30T12:27:23.719Z,6.52
2023-12-30T12:30:11.829Z,6.43
2023-12-30T12:32:58.408Z,6.31
2023-12-30T12:35:45.477Z,6.31
2023-12-30T12:38:32.180Z,6.21
2023-12-30T12:41:18.933Z,6.16
2023-12-30T12:44:06.233Z,6.21
2023-12-30T12:46:52.905Z,6.18
2023-12-30T12:49:40.298Z,6.22
2023-12-30T12:52:26.824Z,6.25
2023-12-30T12:55:14.133Z,6.26
2023-12-30T12:58:00.651Z,6.21
2023-12-30T13:00:47.653Z,6.17
2023-12-30T13:03:34.732Z,6.14
2023-12-30T13:06:23.975Z,6.05
2023-12-30T13:10:07.435Z,5.96
2023-12-30T13:12:54.674Z,5.94
2023-12-30T13:15:41.700Z,5.92
2023-12-30T13:18:29.599Z,5.92
2023-12-30T13:21:16.702Z,5.91
2023-12-30T13:24:03.384Z,5.90
2023-12-30T13:26:50.491Z,5.89
2023-12-30T13:29:38.146Z,5.85
2023-12-30T13:32:28.858Z,5.84
2023-12-30T13:35:15.660Z,5.83
2023-12-30T13:38:07.825Z,5.82
2023-12-30T13:40:54.769Z,5.80
2023-12-30T13:43:45.026Z,5.81
2023-12-30T13:46:32.996Z,5.77
2023-12-30T13:49:41.864Z,5.82
2023-12-30T13:52:29.831Z,5.80
2023-12-30T13:55:19.747Z,5.81
2023-12-30T13:58:06.820Z,5.83
2023-12-30T14:00:53.513Z,5.85
2023-12-30T14:03:41.413Z,5.86
2023-12-30T14:06:34.825Z,5.86
2023-12-30T14:09:33.330Z,5.87
2023-12-30T14:12:21.052Z,5.88
2023-12-30T14:15:13.666Z,5.87
2023-12-30T14:18:00.566Z,5.85
2023-12-30T14:20:48.385Z,5.86
2023-12-30T14:23:35.039Z,5.85
2023-12-30T14:26:22.427Z,5.84
2023-12-30T14:29:09.690Z,5.81
2023-12-30T14:31:56.390Z,5.80
2023-12-30T14:34:43.012Z,5.83
2023-12-30T14:37:29.944Z,5.81
2023-12-30T14:40:17.629Z,5.80
2023-12-30T14:43:04.719Z,5.79
2023-12-30T14:45:51.547Z,5.78
2023-12-30T14:48:39.149Z,5.77
2023-12-30T14:51:26.375Z,5.73
2023-12-30T14:54:13.319Z,5.79
2023-12-30T14:57:00.288Z,5.78
2023-12-30T14:59:46.994Z,5.77
2023-12-30T15:02:35.096Z,5.78
2023-12-30T15:05:23.628Z,5.78
2023-12-30T15:08:10.691Z,5.76
2023-12-30T15:10:57.478Z,5.74
2023-12-30T15:13:43.764Z,5.75
2023-12-30T15:16:30.302Z,5.75
2023-12-30T15:19:17.043Z,5.75
2023-12-30T15:22:04.005Z,5.74
2023-12-30T15:24:51.121Z,5.73
2023-12-30T15:27:37.872Z,5.73
2023-12-30T15:30:24.610Z,5.72
2023-12-30T15:33:12.040Z,5.71
2023-12-30T15:36:04.227Z,5.68
2023-12-30T15:38:50.914Z,5.67
2023-12-30T15:41:37.299Z,5.66
2023-12-30T15:44:26.157Z,5.65
2023-12-30T15:47:13.747Z,5.63
2023-12-30T15:50:00.759Z,5.60
2023-12-30T15:52:47.761Z,5.57
2023-12-30T15:55:35.315Z,5.50
2023-12-30T15:58:22.066Z,5.49
2023-12-30T16:01:08.710Z,5.45
2023-12-30T16:03:55.872Z,5.41
2023-12-30T16:06:43.009Z,5.35
2023-12-30T16:09:29.525Z,5.28
2023-12-30T16:12:16.047Z,5.23
2023-12-30T16:15:02.659Z,5.20
2023-12-30T16:17:49.827Z,5.16
2023-12-30T16:20:36.575Z,5.16
2023-12-30T16:23:23.104Z,5.20
2023-12-30T16:26:10.223Z,5.20
2023-12-30T16:28:58.532Z,5.18
2023-12-30T16:31:45.155Z,5.16
2023-12-30T16:34:32.299Z,5.15
2023-12-30T16:37:23.923Z,5.15
2023-12-30T16:40:11.724Z,5.15
2023-12-30T16:42:58.122Z,5.13
2023-12-30T16:45:46.286Z,5.07
2023-12-30T16:48:34.462Z,5.00
2023-12-30T16:51:21.772Z,4.91
2023-12-30T16:54:09.618Z,4.80
2023-12-30T16:56:57.734Z,4.60
2023-12-30T16:59:44.357Z,4.38
2023-12-30T17:02:31.041Z,4.26
2023-12-30T17:05:17.962Z,4.06
2023-12-30T17:08:05.352Z,3.81
2023-12-30T17:10:52.107Z,3.70
2023-12-30T17:13:43.187Z,3.56
2023-12-30T17:16:37.359Z,3.44
2023-12-30T17:19:23.700Z,3.39
2023-12-30T17:22:10.437Z,3.33
2023-12-30T17:24:56.749Z,3.29
2023-12-30T17:27:43.149Z,3.26
2023-12-30T17:30:29.476Z,3.22
2023-12-30T17:33:16.367Z,3.19
2023-12-30T17:36:03.289Z,3.16
2023-12-30T17:38:50.323Z,3.14
2023-12-30T17:41:37.002Z,3.11
2023-12-30T17:44:23.623Z,3.12
2023-12-30T17:47:11.109Z,3.09
2023-12-30T17:49:58.097Z,3.11
2023-12-30T17:52:45.002Z,3.10
2023-12-30T17:55:33.989Z,3.11
2023-12-30T17:58:21.983Z,3.12
2023-12-30T18:01:28.620Z,3.14
2023-12-30T18:04:15.631Z,3.16
2023-12-30T18:07:02.660Z,3.13
2023-12-30T18:09:49.386Z,3.12
2023-12-30T18:12:37.742Z,3.12
2023-12-30T18:15:24.377Z,3.10
2023-12-30T18:18:12.101Z,3.10
2023-12-30T18:20:58.810Z,3.09
2023-12-30T18:23:45.545Z,3.05
2023-12-30T18:26:32.581Z,3.04
2023-12-30T18:29:19.580Z,3.01
2023-12-30T18:32:07.962Z,2.98
2023-12-30T18:34:54.600Z,2.96
2023-12-30T18:37:42.832Z,2.91
2023-12-30T18:40:29.701Z,2.86
2023-12-30T18:43:16.571Z,2.82
2023-12-30T18:46:03.349Z,2.77
2023-12-30T18:48:50.133Z,2.72
2023-12-30T18:51:36.774Z,2.70
2023-12-30T18:54:22.993Z,2.69
2023-12-30T18:57:09.516Z,2.64
2023-12-30T18:59:56.075Z,2.67
2023-12-30T19:02:42.994Z,2.66
2023-12-30T19:05:30.417Z,2.60
2023-12-30T19:08:17.285Z,2.58
2023-12-30T19:11:04.930Z,2.53
2023-12-30T19:13:51.846Z,2.54
2023-12-30T19:16:38.688Z,2.50
2023-12-30T19:19:25.061Z,2.49
2023-12-30T19:22:12.804Z,2.46
2023-12-30T19:24:59.887Z,2.48
2023-12-30T19:27:47.228Z,2.47
2023-12-30T19:30:34.058Z,2.44
2023-12-30T19:33:21.054Z,2.35
2023-12-30T19:36:09.736Z,2.35
2023-12-30T19:38:56.268Z,2.28
2023-12-30T19:41:43.946Z,2.26
2023-12-30T19:44:30.516Z,2.20
2023-12-30T19:47:17.055Z,2.12
2023-12-30T19:50:04.896Z,2.04
2023-12-30T19:52:52.095Z,1.95
2023-12-30T19:55:38.999Z,1.89
2023-12-30T19:58:28.885Z,1.84
2023-12-30T20:01:20.336Z,1.78
2023-12-30T20:04:06.910Z,1.76
2023-12-30T20:06:53.755Z,1.76
2023-12-30T20:09:42.448Z,1.76
2023-12-30T20:12:29.953Z,1.73
2023-12-30T20:15:18.062Z,1.71
2023-12-30T20:18:05.451Z,1.63
2023-12-30T20:20:52.205Z,1.61
2023-12-30T20:23:38.706Z,1.66
2023-12-30T20:26:25.642Z,1.70
2023-12-30T20:29:11.845Z,1.70
2023-12-30T20:31:58.611Z,1.70
2023-12-30T20:34:46.900Z,1.68
2023-12-30T20:37:33.588Z,1.64
2023-12-30T20:40:20.540Z,1.67
2023-12-30T20:43:07.315Z,1.60
2023-12-30T20:45:54.038Z,1.48
2023-12-30T20:48:43.766Z,1.36
2023-12-30T20:51:30.028Z,1.25
2023-12-30T20:54:17.531Z,1.12
2023-12-30T20:57:04.235Z,1.06
2023-12-30T20:59:50.907Z,0.99
2023-12-30T21:02:39.266Z,0.99
2023-12-30T21:05:25.745Z,0.99
2023-12-30T21:08:12.751Z,1.04
2023-12-30T21:10:59.408Z,1.15
2023-12-30T21:13:46.818Z,1.31
2023-12-30T21:16:33.287Z,1.47
2023-12-30T21:19:20.136Z,1.61
2023-12-30T21:22:07.023Z,1.68
2023-12-30T21:24:53.784Z,1.72
2023-12-30T21:27:40.432Z,1.76
2023-12-30T21:30:27.004Z,1.81
2023-12-30T21:33:13.702Z,1.87
2023-12-30T21:36:00.324Z,1.94
2023-12-30T21:38:46.894Z,1.94
2023-12-30T21:41:33.314Z,1.95
2023-12-30T21:44:19.950Z,1.96
2023-12-30T21:47:06.873Z,1.94
2023-12-30T21:49:53.489Z,1.97
2023-12-30T21:52:40.498Z,1.97
2023-12-30T21:55:27.266Z,2.00
2023-12-30T21:58:14.288Z,1.99
2023-12-30T22:01:02.472Z,1.94
2023-12-30T22:03:49.718Z,1.87
2023-12-30T22:06:36.432Z,1.81
2023-12-30T22:09:23.006Z,1.81
2023-12-30T22:12:10.516Z,1.76
2023-12-30T22:14:56.783Z,1.74
2023-12-30T22:17:43.617Z,1.77
2023-12-30T22:20:30.533Z,1.73
2023-12-30T22:23:19.295Z,1.68
2023-12-30T22:26:06.449Z,1.62
2023-12-30T22:28:53.031Z,1.54
2023-12-30T22:31:43.118Z,1.44
2023-12-30T22:34:29.609Z,1.33
2023-12-30T22:37:17.747Z,1.25
2023-12-30T22:40:05.336Z,1.20
2023-12-30T22:42:52.009Z,1.16
2023-12-30T22:45:42.192Z,1.12
2023-12-30T22:48:28.690Z,1.06
2023-12-30T22:51:15.617Z,0.98
2023-12-30T22:54:02.367Z,0.94
2023-12-30T22:56:49.314Z,0.90
2023-12-30T22:59:36.694Z,0.81
2023-12-30T23:02:23.715Z,0.70
2023-12-30T23:05:11.279Z,0.58
2023-12-30T23:07:58.711Z,0.47
2023-12-30T23:10:45.325Z,0.39
2023-12-30T23:13:32.208Z,0.37
2023-12-30T23:16:18.694Z,0.35
2023-12-30T23:19:05.678Z,0.37
2023-12-30T23:21:53.430Z,0.42
2023-12-30T23:24:40.386Z,0.44
2023-12-30T23:27:26.970Z,0.43
2023-12-30T23:30:15.087Z,0.37
2023-12-30T23:33:01.826Z,0.30
2023-12-30T23:35:48.813Z,0.27
2023-12-30T23:38:35.818Z,0.24
2023-12-30T23:41:22.178Z,0.24
2023-12-30T23:44:08.815Z,0.22
2023-12-30T23:46:55.617Z,0.21
2023-12-30T23:49:42.085Z,0.24
2023-12-30T23:52:28.714Z,0.21
2023-12-30T23:55:15.800Z,0.24
2023-12-30T23:58:03.232Z,0.27
